sensor_id;sensor_type;location;lat;lon;timestamp;P1;durP1;ratioP1;P2;durP2;ratioP2
48873;SDS011;66155;46.204;5.220;2023-03-01T00:04:40;18.08;;;10.50;;
48873;SDS011;66155;46.204;5.220;2023-03-01T00:09:40;15.35;;;9.75;;
48873;SDS011;66155;46.204;5.220;2023-03-01T00:14:40;19.20;;;11.02;;
48873;SDS011;66155;46.204;5.220;2023-03-01T00:19:41;17.73;;;10.75;;
48873;SDS011;66155;46.204;5.220;2023-03-01T00:24:41;21.33;;;11.38;;
48873;SDS011;66155;46.204;5.220;2023-03-01T00:29:42;18.63;;;10.35;;
48873;SDS011;66155;46.204;5.220;2023-03-01T00:34:42;16.95;;;10.32;;
48873;SDS011;66155;46.204;5.220;2023-03-01T00:39:54;22.33;;;10.75;;
48873;SDS011;66155;46.204;5.220;2023-03-01T00:44:54;18.15;;;10.15;;
48873;SDS011;66155;46.204;5.220;2023-03-01T00:49:55;18.42;;;10.30;;
48873;SDS011;66155;46.204;5.220;2023-03-01T00:54:55;17.92;;;9.52;;
48873;SDS011;66155;46.204;5.220;2023-03-01T00:59:56;22.42;;;10.00;;
48873;SDS011;66155;46.204;5.220;2023-03-01T01:04:56;19.35;;;10.82;;
48873;SDS011;66155;46.204;5.220;2023-03-01T01:09:57;19.35;;;10.13;;
48873;SDS011;66155;46.204;5.220;2023-03-01T01:14:57;16.23;;;9.10;;
48873;SDS011;66155;46.204;5.220;2023-03-01T01:19:58;18.65;;;12.25;;
48873;SDS011;66155;46.204;5.220;2023-03-01T01:25:00;19.48;;;10.77;;
48873;SDS011;66155;46.204;5.220;2023-03-01T01:30:00;19.40;;;10.77;;
48873;SDS011;66155;46.204;5.220;2023-03-01T01:35:01;19.55;;;10.02;;
48873;SDS011;66155;46.204;5.220;2023-03-01T01:40:01;19.80;;;10.00;;
48873;SDS011;66155;46.204;5.220;2023-03-01T01:50:34;18.92;;;10.15;;
48873;SDS011;66155;46.204;5.220;2023-03-01T01:55:41;19.30;;;9.32;;
48873;SDS011;66155;46.204;5.220;2023-03-01T02:00:44;19.10;;;10.70;;
48873;SDS011;66155;46.204;5.220;2023-03-01T02:10:54;18.30;;;10.10;;
48873;SDS011;66155;46.204;5.220;2023-03-01T02:15:56;19.88;;;9.55;;
48873;SDS011;66155;46.204;5.220;2023-03-01T02:21:17;17.63;;;9.98;;
48873;SDS011;66155;46.204;5.220;2023-03-01T02:26:41;14.32;;;10.05;;
48873;SDS011;66155;46.204;5.220;2023-03-01T02:31:47;19.75;;;10.23;;
48873;SDS011;66155;46.204;5.220;2023-03-01T02:36:53;18.10;;;10.23;;
48873;SDS011;66155;46.204;5.220;2023-03-01T02:41:56;17.50;;;10.45;;
48873;SDS011;66155;46.204;5.220;2023-03-01T02:47:00;20.02;;;10.88;;
48873;SDS011;66155;46.204;5.220;2023-03-01T02:57:21;22.08;;;11.23;;
48873;SDS011;66155;46.204;5.220;2023-03-01T03:02:25;17.60;;;10.13;;
48873;SDS011;66155;46.204;5.220;2023-03-01T03:07:36;17.10;;;9.45;;
48873;SDS011;66155;46.204;5.220;2023-03-01T03:12:38;21.38;;;11.07;;
48873;SDS011;66155;46.204;5.220;2023-03-01T03:17:40;19.70;;;10.88;;
48873;SDS011;66155;46.204;5.220;2023-03-01T03:22:42;16.38;;;9.95;;
48873;SDS011;66155;46.204;5.220;2023-03-01T03:27:43;19.92;;;11.07;;
48873;SDS011;66155;46.204;5.220;2023-03-01T03:32:45;16.15;;;10.13;;
48873;SDS011;66155;46.204;5.220;2023-03-01T03:37:52;23.38;;;10.75;;
48873;SDS011;66155;46.204;5.220;2023-03-01T03:43:05;15.02;;;10.90;;
48873;SDS011;66155;46.204;5.220;2023-03-01T03:48:09;21.80;;;12.47;;
48873;SDS011;66155;46.204;5.220;2023-03-01T03:53:10;23.38;;;11.48;;
48873;SDS011;66155;46.204;5.220;2023-03-01T03:58:11;21.23;;;11.15;;
48873;SDS011;66155;46.204;5.220;2023-03-01T04:03:13;23.90;;;11.35;;
48873;SDS011;66155;46.204;5.220;2023-03-01T04:08:14;17.75;;;11.52;;
48873;SDS011;66155;46.204;5.220;2023-03-01T04:13:16;17.85;;;10.70;;
48873;SDS011;66155;46.204;5.220;2023-03-01T04:18:21;17.30;;;9.85;;
48873;SDS011;66155;46.204;5.220;2023-03-01T04:23:23;27.17;;;10.77;;
48873;SDS011;66155;46.204;5.220;2023-03-01T04:28:25;22.13;;;11.95;;
48873;SDS011;66155;46.204;5.220;2023-03-01T04:33:28;19.00;;;10.35;;
48873;SDS011;66155;46.204;5.220;2023-03-01T04:38:28;19.63;;;11.38;;
48873;SDS011;66155;46.204;5.220;2023-03-01T04:43:28;20.92;;;11.57;;
48873;SDS011;66155;46.204;5.220;2023-03-01T04:48:30;21.40;;;11.18;;
48873;SDS011;66155;46.204;5.220;2023-03-01T04:53:31;24.52;;;12.23;;
48873;SDS011;66155;46.204;5.220;2023-03-01T04:58:32;20.77;;;11.50;;
48873;SDS011;66155;46.204;5.220;2023-03-01T05:03:33;20.63;;;11.75;;
48873;SDS011;66155;46.204;5.220;2023-03-01T05:08:33;17.92;;;11.32;;
48873;SDS011;66155;46.204;5.220;2023-03-01T05:13:37;18.92;;;11.73;;
48873;SDS011;66155;46.204;5.220;2023-03-01T05:18:40;23.02;;;12.07;;
48873;SDS011;66155;46.204;5.220;2023-03-01T05:23:41;21.67;;;12.75;;
48873;SDS011;66155;46.204;5.220;2023-03-01T05:28:41;22.25;;;12.02;;
48873;SDS011;66155;46.204;5.220;2023-03-01T05:33:42;20.38;;;12.18;;
48873;SDS011;66155;46.204;5.220;2023-03-01T05:38:43;20.65;;;12.50;;
48873;SDS011;66155;46.204;5.220;2023-03-01T05:43:44;23.02;;;13.45;;
48873;SDS011;66155;46.204;5.220;2023-03-01T05:48:44;22.83;;;11.18;;
48873;SDS011;66155;46.204;5.220;2023-03-01T05:53:45;22.27;;;12.00;;
48873;SDS011;66155;46.204;5.220;2023-03-01T05:58:47;21.17;;;12.23;;
48873;SDS011;66155;46.204;5.220;2023-03-01T06:03:48;21.70;;;11.15;;
48873;SDS011;66155;46.204;5.220;2023-03-01T06:08:48;23.85;;;12.25;;
48873;SDS011;66155;46.204;5.220;2023-03-01T06:13:49;22.13;;;12.32;;
48873;SDS011;66155;46.204;5.220;2023-03-01T06:18:50;23.88;;;12.02;;
48873;SDS011;66155;46.204;5.220;2023-03-01T06:23:50;21.10;;;11.73;;
48873;SDS011;66155;46.204;5.220;2023-03-01T06:28:51;26.95;;;12.63;;
48873;SDS011;66155;46.204;5.220;2023-03-01T06:33:52;20.98;;;11.65;;
48873;SDS011;66155;46.204;5.220;2023-03-01T06:38:52;25.35;;;12.48;;
48873;SDS011;66155;46.204;5.220;2023-03-01T06:43:53;26.80;;;14.48;;
48873;SDS011;66155;46.204;5.220;2023-03-01T06:48:54;32.88;;;13.57;;
48873;SDS011;66155;46.204;5.220;2023-03-01T06:53:55;26.33;;;13.30;;
48873;SDS011;66155;46.204;5.220;2023-03-01T06:58:55;24.20;;;12.10;;
48873;SDS011;66155;46.204;5.220;2023-03-01T07:03:56;21.85;;;11.70;;
48873;SDS011;66155;46.204;5.220;2023-03-01T07:08:57;24.30;;;12.35;;
48873;SDS011;66155;46.204;5.220;2023-03-01T07:13:57;26.23;;;12.63;;
48873;SDS011;66155;46.204;5.220;2023-03-01T07:19:00;24.63;;;12.27;;
48873;SDS011;66155;46.204;5.220;2023-03-01T07:24:00;28.67;;;14.02;;
48873;SDS011;66155;46.204;5.220;2023-03-01T07:29:02;22.95;;;12.85;;
48873;SDS011;66155;46.204;5.220;2023-03-01T07:34:04;25.67;;;13.02;;
48873;SDS011;66155;46.204;5.220;2023-03-01T07:39:05;24.70;;;12.30;;
48873;SDS011;66155;46.204;5.220;2023-03-01T07:44:05;27.35;;;14.98;;
48873;SDS011;66155;46.204;5.220;2023-03-01T07:49:06;28.35;;;15.50;;
48873;SDS011;66155;46.204;5.220;2023-03-01T07:54:06;34.90;;;16.83;;
48873;SDS011;66155;46.204;5.220;2023-03-01T07:59:07;29.60;;;14.27;;
48873;SDS011;66155;46.204;5.220;2023-03-01T08:04:08;25.35;;;13.95;;
48873;SDS011;66155;46.204;5.220;2023-03-01T08:09:08;27.83;;;15.15;;
48873;SDS011;66155;46.204;5.220;2023-03-01T08:14:09;24.40;;;13.02;;
48873;SDS011;66155;46.204;5.220;2023-03-01T08:19:11;29.33;;;12.93;;
48873;SDS011;66155;46.204;5.220;2023-03-01T08:24:12;29.67;;;14.50;;
48873;SDS011;66155;46.204;5.220;2023-03-01T08:29:12;25.55;;;13.27;;
48873;SDS011;66155;46.204;5.220;2023-03-01T08:34:14;24.67;;;13.48;;
48873;SDS011;66155;46.204;5.220;2023-03-01T08:39:16;21.58;;;12.60;;
48873;SDS011;66155;46.204;5.220;2023-03-01T08:44:19;25.55;;;13.73;;
48873;SDS011;66155;46.204;5.220;2023-03-01T08:49:21;26.17;;;12.30;;
48873;SDS011;66155;46.204;5.220;2023-03-01T08:54:21;21.80;;;12.60;;
48873;SDS011;66155;46.204;5.220;2023-03-01T08:59:22;23.90;;;12.55;;
48873;SDS011;66155;46.204;5.220;2023-03-01T09:04:23;26.33;;;14.10;;
48873;SDS011;66155;46.204;5.220;2023-03-01T09:09:23;25.08;;;13.20;;
48873;SDS011;66155;46.204;5.220;2023-03-01T09:14:24;25.17;;;13.20;;
48873;SDS011;66155;46.204;5.220;2023-03-01T09:19:24;28.27;;;13.25;;
48873;SDS011;66155;46.204;5.220;2023-03-01T09:24:25;29.02;;;15.15;;
48873;SDS011;66155;46.204;5.220;2023-03-01T09:29:25;25.38;;;13.93;;
48873;SDS011;66155;46.204;5.220;2023-03-01T09:34:26;29.20;;;14.15;;
48873;SDS011;66155;46.204;5.220;2023-03-01T09:39:27;23.52;;;13.38;;
48873;SDS011;66155;46.204;5.220;2023-03-01T09:44:29;28.02;;;14.25;;
48873;SDS011;66155;46.204;5.220;2023-03-01T09:49:32;28.55;;;14.35;;
48873;SDS011;66155;46.204;5.220;2023-03-01T09:54:35;29.67;;;14.30;;
48873;SDS011;66155;46.204;5.220;2023-03-01T09:59:45;26.92;;;13.90;;
48873;SDS011;66155;46.204;5.220;2023-03-01T10:10:38;24.70;;;13.73;;
48873;SDS011;66155;46.204;5.220;2023-03-01T10:15:44;29.20;;;15.18;;
48873;SDS011;66155;46.204;5.220;2023-03-01T10:20:58;26.15;;;14.73;;
48873;SDS011;66155;46.204;5.220;2023-03-01T10:26:04;26.00;;;14.10;;
48873;SDS011;66155;46.204;5.220;2023-03-01T10:31:12;27.58;;;14.75;;
48873;SDS011;66155;46.204;5.220;2023-03-01T10:36:14;30.00;;;14.98;;
48873;SDS011;66155;46.204;5.220;2023-03-01T10:41:15;25.58;;;14.38;;
48873;SDS011;66155;46.204;5.220;2023-03-01T10:46:22;26.77;;;13.98;;
48873;SDS011;66155;46.204;5.220;2023-03-01T10:51:33;25.85;;;14.48;;
48873;SDS011;66155;46.204;5.220;2023-03-01T10:56:45;24.55;;;14.15;;
48873;SDS011;66155;46.204;5.220;2023-03-01T11:02:02;27.17;;;14.57;;
48873;SDS011;66155;46.204;5.220;2023-03-01T11:07:02;28.67;;;14.70;;
48873;SDS011;66155;46.204;5.220;2023-03-01T11:12:03;27.13;;;14.32;;
48873;SDS011;66155;46.204;5.220;2023-03-01T11:17:13;29.33;;;15.77;;
48873;SDS011;66155;46.204;5.220;2023-03-01T11:22:21;32.58;;;16.15;;
48873;SDS011;66155;46.204;5.220;2023-03-01T11:27:24;26.67;;;15.50;;
48873;SDS011;66155;46.204;5.220;2023-03-01T11:32:41;27.75;;;16.73;;
48873;SDS011;66155;46.204;5.220;2023-03-01T11:42:52;31.55;;;16.80;;
48873;SDS011;66155;46.204;5.220;2023-03-01T11:48:12;26.73;;;15.77;;
48873;SDS011;66155;46.204;5.220;2023-03-01T11:59:19;27.90;;;13.48;;
48873;SDS011;66155;46.204;5.220;2023-03-01T12:10:10;28.73;;;16.10;;
48873;SDS011;66155;46.204;5.220;2023-03-01T12:15:27;24.05;;;15.48;;
48873;SDS011;66155;46.204;5.220;2023-03-01T12:20:37;24.80;;;15.20;;
48873;SDS011;66155;46.204;5.220;2023-03-01T12:26:05;28.10;;;15.57;;
48873;SDS011;66155;46.204;5.220;2023-03-01T12:31:29;36.25;;;18.33;;
48873;SDS011;66155;46.204;5.220;2023-03-01T12:41:48;33.15;;;18.60;;
48873;SDS011;66155;46.204;5.220;2023-03-01T12:47:11;29.30;;;17.38;;
48873;SDS011;66155;46.204;5.220;2023-03-01T12:52:40;28.75;;;16.38;;
48873;SDS011;66155;46.204;5.220;2023-03-01T12:58:01;28.25;;;15.95;;
48873;SDS011;66155;46.204;5.220;2023-03-01T13:03:53;28.60;;;15.55;;
48873;SDS011;66155;46.204;5.220;2023-03-01T13:09:28;27.13;;;15.45;;
48873;SDS011;66155;46.204;5.220;2023-03-01T13:19:26;25.25;;;15.18;;
48873;SDS011;66155;46.204;5.220;2023-03-01T13:24:40;27.70;;;15.57;;
48873;SDS011;66155;46.204;5.220;2023-03-01T13:29:54;26.08;;;15.43;;
48873;SDS011;66155;46.204;5.220;2023-03-01T13:34:58;27.40;;;15.27;;
48873;SDS011;66155;46.204;5.220;2023-03-01T13:40:01;24.10;;;15.02;;
48873;SDS011;66155;46.204;5.220;2023-03-01T13:45:40;24.60;;;15.45;;
48873;SDS011;66155;46.204;5.220;2023-03-01T13:50:50;27.40;;;15.05;;
48873;SDS011;66155;46.204;5.220;2023-03-01T13:55:58;24.83;;;14.25;;
48873;SDS011;66155;46.204;5.220;2023-03-01T14:01:03;25.00;;;14.07;;
48873;SDS011;66155;46.204;5.220;2023-03-01T14:06:23;21.88;;;14.63;;
48873;SDS011;66155;46.204;5.220;2023-03-01T14:21:45;24.35;;;15.63;;
48873;SDS011;66155;46.204;5.220;2023-03-01T14:26:48;25.95;;;16.13;;
48873;SDS011;66155;46.204;5.220;2023-03-01T14:31:50;23.30;;;14.95;;
48873;SDS011;66155;46.204;5.220;2023-03-01T14:36:50;26.27;;;14.88;;
48873;SDS011;66155;46.204;5.220;2023-03-01T14:41:51;26.92;;;15.77;;
48873;SDS011;66155;46.204;5.220;2023-03-01T14:46:52;24.15;;;14.45;;
48873;SDS011;66155;46.204;5.220;2023-03-01T14:56:59;25.23;;;15.73;;
48873;SDS011;66155;46.204;5.220;2023-03-01T15:02:01;24.23;;;14.75;;
48873;SDS011;66155;46.204;5.220;2023-03-01T15:07:02;23.85;;;15.05;;
48873;SDS011;66155;46.204;5.220;2023-03-01T15:17:33;23.02;;;13.32;;
48873;SDS011;66155;46.204;5.220;2023-03-01T15:22:38;24.92;;;15.38;;
48873;SDS011;66155;46.204;5.220;2023-03-01T15:27:49;24.35;;;15.20;;
48873;SDS011;66155;46.204;5.220;2023-03-01T15:38:31;23.85;;;15.43;;
48873;SDS011;66155;46.204;5.220;2023-03-01T15:43:51;25.27;;;15.85;;
48873;SDS011;66155;46.204;5.220;2023-03-01T15:48:58;28.05;;;14.95;;
48873;SDS011;66155;46.204;5.220;2023-03-01T15:54:05;24.55;;;14.20;;
48873;SDS011;66155;46.204;5.220;2023-03-01T15:59:12;26.05;;;14.77;;
48873;SDS011;66155;46.204;5.220;2023-03-01T16:04:14;25.88;;;15.48;;
48873;SDS011;66155;46.204;5.220;2023-03-01T16:09:23;26.05;;;14.90;;
48873;SDS011;66155;46.204;5.220;2023-03-01T16:14:24;26.30;;;15.18;;
48873;SDS011;66155;46.204;5.220;2023-03-01T16:19:25;28.23;;;16.45;;
48873;SDS011;66155;46.204;5.220;2023-03-01T16:24:25;26.08;;;15.00;;
48873;SDS011;66155;46.204;5.220;2023-03-01T16:29:26;23.05;;;15.13;;
48873;SDS011;66155;46.204;5.220;2023-03-01T16:34:27;29.45;;;15.25;;
48873;SDS011;66155;46.204;5.220;2023-03-01T16:39:27;26.00;;;15.18;;
48873;SDS011;66155;46.204;5.220;2023-03-01T16:44:28;27.05;;;15.20;;
48873;SDS011;66155;46.204;5.220;2023-03-01T16:49:28;28.63;;;15.70;;
48873;SDS011;66155;46.204;5.220;2023-03-01T16:54:29;25.67;;;14.70;;
48873;SDS011;66155;46.204;5.220;2023-03-01T16:59:29;27.90;;;15.23;;
48873;SDS011;66155;46.204;5.220;2023-03-01T17:04:29;26.98;;;15.05;;
48873;SDS011;66155;46.204;5.220;2023-03-01T17:09:33;28.05;;;14.07;;
48873;SDS011;66155;46.204;5.220;2023-03-01T17:14:34;26.20;;;14.70;;
48873;SDS011;66155;46.204;5.220;2023-03-01T17:19:35;27.02;;;14.32;;
48873;SDS011;66155;46.204;5.220;2023-03-01T17:24:40;26.30;;;14.85;;
48873;SDS011;66155;46.204;5.220;2023-03-01T17:29:41;28.77;;;15.60;;
48873;SDS011;66155;46.204;5.220;2023-03-01T17:34:41;29.88;;;16.75;;
48873;SDS011;66155;46.204;5.220;2023-03-01T17:39:42;28.27;;;16.10;;
48873;SDS011;66155;46.204;5.220;2023-03-01T17:44:42;29.33;;;14.02;;
48873;SDS011;66155;46.204;5.220;2023-03-01T17:49:43;32.60;;;15.18;;
48873;SDS011;66155;46.204;5.220;2023-03-01T17:54:43;33.03;;;16.20;;
48873;SDS011;66155;46.204;5.220;2023-03-01T17:59:44;33.75;;;15.13;;
48873;SDS011;66155;46.204;5.220;2023-03-01T18:04:44;30.98;;;15.32;;
48873;SDS011;66155;46.204;5.220;2023-03-01T18:09:45;29.60;;;15.55;;
48873;SDS011;66155;46.204;5.220;2023-03-01T18:14:45;30.50;;;15.70;;
48873;SDS011;66155;46.204;5.220;2023-03-01T18:19:47;28.27;;;14.57;;
48873;SDS011;66155;46.204;5.220;2023-03-01T18:24:48;35.47;;;18.52;;
48873;SDS011;66155;46.204;5.220;2023-03-01T18:29:48;25.20;;;14.82;;
48873;SDS011;66155;46.204;5.220;2023-03-01T18:34:49;27.73;;;15.73;;
48873;SDS011;66155;46.204;5.220;2023-03-01T18:39:50;28.88;;;16.30;;
48873;SDS011;66155;46.204;5.220;2023-03-01T18:44:51;31.63;;;16.30;;
48873;SDS011;66155;46.204;5.220;2023-03-01T18:49:53;27.52;;;14.73;;
48873;SDS011;66155;46.204;5.220;2023-03-01T18:54:53;30.30;;;14.43;;
48873;SDS011;66155;46.204;5.220;2023-03-01T18:59:53;29.58;;;14.18;;
48873;SDS011;66155;46.204;5.220;2023-03-01T19:04:54;28.27;;;14.32;;
48873;SDS011;66155;46.204;5.220;2023-03-01T19:09:54;23.63;;;13.40;;
48873;SDS011;66155;46.204;5.220;2023-03-01T19:14:55;28.27;;;14.00;;
48873;SDS011;66155;46.204;5.220;2023-03-01T19:19:56;25.05;;;14.60;;
48873;SDS011;66155;46.204;5.220;2023-03-01T19:24:57;27.73;;;14.75;;
48873;SDS011;66155;46.204;5.220;2023-03-01T19:29:57;29.58;;;15.57;;
48873;SDS011;66155;46.204;5.220;2023-03-01T19:34:58;29.67;;;14.52;;
48873;SDS011;66155;46.204;5.220;2023-03-01T19:39:58;26.58;;;14.85;;
48873;SDS011;66155;46.204;5.220;2023-03-01T19:45:00;25.35;;;14.43;;
48873;SDS011;66155;46.204;5.220;2023-03-01T19:50:00;24.40;;;12.88;;
48873;SDS011;66155;46.204;5.220;2023-03-01T19:55:01;29.30;;;15.38;;
48873;SDS011;66155;46.204;5.220;2023-03-01T20:00:01;27.20;;;14.52;;
48873;SDS011;66155;46.204;5.220;2023-03-01T20:05:02;26.77;;;15.18;;
48873;SDS011;66155;46.204;5.220;2023-03-01T20:10:03;30.55;;;15.95;;
48873;SDS011;66155;46.204;5.220;2023-03-01T20:15:04;28.85;;;16.20;;
48873;SDS011;66155;46.204;5.220;2023-03-01T20:20:05;30.27;;;14.73;;
48873;SDS011;66155;46.204;5.220;2023-03-01T20:25:06;35.97;;;15.73;;
48873;SDS011;66155;46.204;5.220;2023-03-01T20:30:07;29.08;;;14.48;;
48873;SDS011;66155;46.204;5.220;2023-03-01T20:35:09;31.17;;;15.02;;
48873;SDS011;66155;46.204;5.220;2023-03-01T20:40:10;24.73;;;13.43;;
48873;SDS011;66155;46.204;5.220;2023-03-01T20:45:12;29.33;;;15.23;;
48873;SDS011;66155;46.204;5.220;2023-03-01T20:50:12;29.25;;;15.23;;
48873;SDS011;66155;46.204;5.220;2023-03-01T20:55:13;28.80;;;14.77;;
48873;SDS011;66155;46.204;5.220;2023-03-01T21:00:13;31.95;;;15.25;;
48873;SDS011;66155;46.204;5.220;2023-03-01T21:05:14;33.13;;;14.45;;
48873;SDS011;66155;46.204;5.220;2023-03-01T21:10:14;27.48;;;14.80;;
48873;SDS011;66155;46.204;5.220;2023-03-01T21:15:15;26.92;;;15.07;;
48873;SDS011;66155;46.204;5.220;2023-03-01T21:20:17;25.92;;;14.27;;
48873;SDS011;66155;46.204;5.220;2023-03-01T21:25:18;30.98;;;14.65;;
48873;SDS011;66155;46.204;5.220;2023-03-01T21:30:19;29.67;;;16.02;;
48873;SDS011;66155;46.204;5.220;2023-03-01T21:35:19;30.10;;;14.70;;
48873;SDS011;66155;46.204;5.220;2023-03-01T21:40:20;35.15;;;15.85;;
48873;SDS011;66155;46.204;5.220;2023-03-01T21:45:21;32.25;;;16.02;;
48873;SDS011;66155;46.204;5.220;2023-03-01T21:50:21;27.83;;;15.73;;
48873;SDS011;66155;46.204;5.220;2023-03-01T21:55:22;30.00;;;14.13;;
48873;SDS011;66155;46.204;5.220;2023-03-01T22:00:22;29.50;;;14.73;;
48873;SDS011;66155;46.204;5.220;2023-03-01T22:05:23;30.27;;;14.57;;
48873;SDS011;66155;46.204;5.220;2023-03-01T22:10:23;31.17;;;15.43;;
48873;SDS011;66155;46.204;5.220;2023-03-01T22:15:26;26.27;;;14.20;;
48873;SDS011;66155;46.204;5.220;2023-03-01T22:20:26;30.65;;;15.07;;
48873;SDS011;66155;46.204;5.220;2023-03-01T22:25:27;33.20;;;15.93;;
48873;SDS011;66155;46.204;5.220;2023-03-01T22:30:28;33.10;;;13.98;;
48873;SDS011;66155;46.204;5.220;2023-03-01T22:35:28;31.98;;;15.38;;
48873;SDS011;66155;46.204;5.220;2023-03-01T22:40:29;29.75;;;14.23;;
48873;SDS011;66155;46.204;5.220;2023-03-01T22:45:30;29.50;;;14.43;;
48873;SDS011;66155;46.204;5.220;2023-03-01T22:50:31;26.98;;;14.52;;
48873;SDS011;66155;46.204;5.220;2023-03-01T22:55:32;31.23;;;14.88;;
48873;SDS011;66155;46.204;5.220;2023-03-01T23:00:32;29.65;;;15.07;;
48873;SDS011;66155;46.204;5.220;2023-03-01T23:05:33;29.35;;;14.77;;
48873;SDS011;66155;46.204;5.220;2023-03-01T23:10:38;32.25;;;16.13;;
48873;SDS011;66155;46.204;5.220;2023-03-01T23:15:39;28.75;;;13.90;;
48873;SDS011;66155;46.204;5.220;2023-03-01T23:20:43;31.42;;;15.13;;
48873;SDS011;66155;46.204;5.220;2023-03-01T23:25:54;32.55;;;15.10;;
48873;SDS011;66155;46.204;5.220;2023-03-01T23:30:57;33.78;;;15.68;;
48873;SDS011;66155;46.204;5.220;2023-03-01T23:35:59;30.83;;;13.65;;
48873;SDS011;66155;46.204;5.220;2023-03-01T23:41:01;31.08;;;13.55;;
48873;SDS011;66155;46.204;5.220;2023-03-01T23:46:02;26.73;;;13.73;;
48873;SDS011;66155;46.204;5.220;2023-03-01T23:51:03;32.65;;;13.25;;
48873;SDS011;66155;46.204;5.220;2023-03-01T23:56:04;33.42;;;16.10;;
